Time;durP1;ratioP1;P1;durP2;ratioP2;P2;SDS_P1;SDS_P2;PMS_P1;PMS_P2;Temp;Humidity;BMP_temperature;BMP_pressure;BME280_temperature;BME280_humidity;BME280_pressure;Samples;Min_cycle;Max_cycle;Signal;HPM_P1;HPM_P2
2023/03/20 00:02:05;;;;;;;;;7.50;6.00;;;;;6.33;67.19;98424.75;4901648;28;102447;-68
2023/03/20 00:04:32;;;;;;;;;2.50;1.50;;;;;6.30;67.51;98425.09;4901040;28;103926;-68
2023/03/20 00:07:00;;;;;;;;;3.50;2.00;;;;;6.25;67.98;98428.31;4900829;28;102350;-68
2023/03/20 00:09:27;;;;;;;;;3.50;3.50;;;;;6.23;67.12;98426.81;4901490;28;103026;-68
2023/03/20 00:11:54;;;;;;;;;1.75;1.75;;;;;6.20;66.17;98430.69;4897931;28;103017;-68
2023/03/20 00:14:23;;;;;;;;;5.50;3.50;;;;;6.19;66.70;98423.66;4897852;28;104106;-69
2023/03/20 00:16:51;;;;;;;;;3.25;3.00;;;;;6.18;67.19;98427.34;4891509;28;102527;-69
2023/03/20 00:19:23;;;;;;;;;3.50;3.50;;;;;6.18;67.19;98432.72;4888708;28;103929;-69
2023/03/20 00:21:51;;;;;;;;;7.75;4.50;;;;;6.16;67.21;98429.38;4892927;28;102093;-70
2023/03/20 00:24:19;;;;;;;;;5.25;5.00;;;;;6.17;67.08;98425.66;4884357;28;104136;-70
2023/03/20 00:26:48;;;;;;;;;5.25;3.50;;;;;6.16;67.00;98431.22;4895663;28;102457;-69
2023/03/20 00:29:26;;;;;;;;;2.00;1.00;;;;;6.15;67.16;98425.03;4892206;28;102078;-70
2023/03/20 00:31:54;;;;;;;;;3.50;3.00;;;;;6.02;67.22;98414.03;4898710;28;101944;-69
2023/03/20 00:34:23;;;;;;;;;7.50;7.00;;;;;6.08;67.89;98418.69;4897367;28;104241;-69
2023/03/20 00:36:51;;;;;;;;;3.25;3.25;;;;;6.09;67.21;98425.72;4894590;28;102031;-69
2023/03/20 00:39:18;;;;;;;;;6.00;6.00;;;;;6.10;66.73;98418.50;4899479;28;102085;-69
2023/03/20 00:42:05;;;;;;;;;3.50;3.50;;;;;5.96;66.96;98395.94;4899830;28;102406;-70
2023/03/20 00:44:58;;;;;;;;;4.00;3.00;;;;;6.09;66.98;98417.66;4897864;28;103915;-69
2023/03/20 00:47:26;;;;;;;;;4.00;3.25;;;;;6.06;67.81;98418.03;4891348;28;102439;-69
2023/03/20 00:49:54;;;;;;;;;3.00;3.00;;;;;6.06;67.41;98418.03;4895166;28;102067;-70
2023/03/20 00:52:22;;;;;;;;;5.75;5.50;;;;;6.06;67.22;98423.41;4898069;28;102559;-69
2023/03/20 00:54:49;;;;;;;;;7.25;6.50;;;;;6.06;66.63;98418.03;4895806;28;103944;-69
2023/03/20 00:57:27;;;;;;;;;6.75;5.00;;;;;6.07;66.88;98408.97;4890409;28;102563;-70
2023/03/20 01:00:08;;;;;;;;;6.75;5.25;;;;;6.07;66.69;98418.88;4896513;28;102496;-69
2023/03/20 01:02:35;;;;;;;;;3.00;3.00;;;;;6.08;67.54;98412.50;4894643;28;102557;-69
2023/03/20 01:05:04;;;;;;;;;6.25;6.25;;;;;6.08;67.68;98415.19;4890291;28;104012;-70
2023/03/20 01:07:31;;;;;;;;;4.50;4.50;;;;;6.07;67.91;98414.34;4891750;28;102185;-69
2023/03/20 01:10:08;;;;;;;;;7.00;6.50;;;;;6.07;67.87;98411.66;4897964;28;102023;-68
2023/03/20 01:13:06;;;;;;;;;5.50;4.00;;;;;6.06;67.47;98407.31;4891383;28;102217;-69
2023/03/20 01:15:51;;;;;;;;;6.75;4.50;;;;;6.06;68.29;98404.63;4891629;28;103135;-69
2023/03/20 01:18:39;;;;;;;;;1.75;1.00;;;;;5.92;68.79;98388.44;4892795;28;102419;-68
2023/03/20 01:21:31;;;;;;;;;1.75;1.00;;;;;6.02;69.65;98400.63;4896490;28;101956;-69
2023/03/20 01:24:13;;;;;;;;;2.25;2.00;;;;;6.01;69.35;98407.00;4898711;28;102478;-68
2023/03/20 01:26:42;;;;;;;;;5.00;5.00;;;;;6.01;68.89;98407.00;4896903;28;108650;-68
2023/03/20 01:29:19;;;;;;;;;5.00;4.00;;;;;6.03;68.46;98407.66;4899167;28;102359;-68
2023/03/20 01:31:47;;;;;;;;;3.50;3.50;;;;;6.04;68.44;98409.31;4885999;28;101987;-69
2023/03/20 01:34:15;;;;;;;;;4.00;3.00;;;;;6.04;68.51;98400.41;4893450;28;104677;-69
2023/03/20 01:36:50;;;;;;;;;5.50;3.00;;;;;6.09;68.30;98412.31;4896980;28;108694;-68
2023/03/20 01:39:20;;;;;;;;;7.50;4.00;;;;;6.11;67.76;98412.97;4896825;28;102400;-70
2023/03/20 01:41:49;;;;;;;;;4.00;3.25;;;;;6.12;67.69;98411.94;4894558;28;102255;-70
2023/03/20 01:44:29;;;;;;;;;7.25;6.50;;;;;6.14;67.24;98412.63;4896086;28;102323;-70
2023/03/20 01:46:58;;;;;;;;;6.75;6.25;;;;;6.15;67.43;98416.97;4897596;28;104031;-69
2023/03/20 01:49:27;;;;;;;;;4.50;4.25;;;;;6.18;67.00;98421.13;4881184;28;102371;-69
2023/03/20 01:51:55;;;;;;;;;1.00;1.00;;;;;6.19;67.28;98420.13;4890097;28;102315;-69
2023/03/20 01:54:34;;;;;;;;;6.00;2.75;;;;;6.20;67.06;98417.28;4897062;28;102363;-68
2023/03/20 01:57:22;;;;;;;;;3.75;3.75;;;;;6.22;67.92;98417.91;4897878;28;103989;-68
2023/03/20 01:59:54;;;;;;;;;2.25;2.25;;;;;6.24;67.67;98425.81;4899065;28;101947;-69
2023/03/20 02:02:27;;;;;;;;;3.50;3.00;;;;;6.24;67.19;98426.66;4892648;28;102832;-70
2023/03/20 02:05:01;;;;;;;;;2.00;2.00;;;;;6.26;67.51;98424.59;4891358;28;103945;-68
2023/03/20 02:07:30;;;;;;;;;3.00;2.00;;;;;6.28;67.29;98430.66;4886637;28;104473;-69
2023/03/20 02:10:20;;;;;;;;;3.00;3.00;;;;;6.28;67.07;98422.59;4888611;28;102092;-70
2023/03/20 02:13:05;;;;;;;;;3.75;3.00;;;;;6.31;67.33;98426.75;4895956;28;101934;-69
2023/03/20 02:16:16;;;;;;;;;0.50;0.00;;;;;6.34;66.98;98417.53;4894585;28;104361;-70
2023/03/20 02:19:02;;;;;;;;;2.25;2.25;;;;;6.36;67.38;98428.91;4896377;28;108287;-69
2023/03/20 02:22:46;;;;;;;;;4.00;3.75;;;;;6.36;67.41;98423.53;4897898;28;103052;-69
2023/03/20 02:26:02;;;;;;;;;2.75;2.50;;;;;6.37;67.57;98422.53;4888270;28;102349;-68
2023/03/20 02:28:46;;;;;;;;;13.25;12.25;;;;;6.31;67.86;98423.22;4910376;28;102059;-69
2023/03/20 02:31:41;;;;;;;;;14.00;12.25;;;;;6.31;68.54;98421.38;4896231;28;108976;-69
2023/03/20 02:34:08;;;;;;;;;12.75;9.25;;;;;6.31;68.47;98418.69;4895851;28;102723;-69
2023/03/20 02:36:44;;;;;;;;;26.75;22.00;;;;;6.22;68.05;98425.97;4901076;28;101959;-69
2023/03/20 02:39:18;;;;;;;;;22.25;17.75;;;;;6.26;67.37;98423.75;4908006;28;102369;-69
2023/03/20 02:41:52;;;;;;;;;13.25;12.50;;;;;6.29;67.49;98418.06;4892586;28;108690;-70
2023/03/20 02:44:19;;;;;;;;;13.25;12.25;;;;;6.32;67.47;98419.53;4903256;28;103075;-69
2023/03/20 02:46:56;;;;;;;;;12.00;9.00;;;;;6.33;68.03;98414.00;4903271;28;102357;-69
2023/03/20 02:49:26;;;;;;;;;10.50;9.25;;;;;6.34;67.48;98412.16;4898447;28;102269;-69
2023/03/20 02:52:01;;;;;;;;;8.75;7.75;;;;;6.36;67.52;98412.78;4900179;28;104008;-70
2023/03/20 02:54:37;;;;;;;;;6.75;5.75;;;;;6.35;68.19;98416.50;4899013;28;102514;-69
2023/03/20 02:57:15;;;;;;;;;7.50;7.00;;;;;6.34;67.91;98409.47;4896792;28;102478;-69
2023/03/20 03:00:02;;;;;;;;;6.75;6.50;;;;;6.33;68.13;98405.09;4898307;28;102166;-69
2023/03/20 03:02:36;;;;;;;;;6.25;4.50;;;;;6.31;68.77;98409.81;4898625;28;108779;-69
2023/03/20 03:05:13;;;;;;;;;5.50;5.50;;;;;6.31;68.56;98413.31;4893493;28;101918;-69
2023/03/20 03:07:45;;;;;;;;;5.00;5.00;;;;;6.30;68.95;98397.41;4897270;28;102493;-69
2023/03/20 03:10:28;;;;;;;;;8.25;6.50;;;;;6.25;69.31;98406.84;4895278;28;102352;-69
2023/03/20 03:12:59;;;;;;;;;3.00;2.75;;;;;6.05;69.58;98376.09;4893703;28;108415;-69
2023/03/20 03:15:37;;;;;;;;;7.25;6.75;;;;;6.18;69.41;98411.25;4899526;28;102308;-69
2023/03/20 03:18:10;;;;;;;;;6.25;6.00;;;;;6.16;69.69;98402.53;4893199;28;101872;-68
2023/03/20 03:20:38;;;;;;;;;7.25;6.25;;;;;6.15;69.68;98405.41;4906842;28;102404;-68
2023/03/20 03:23:06;;;;;;;;;2.50;2.50;;;;;6.12;69.85;98392.34;4896659;28;104101;-69
2023/03/20 03:25:37;;;;;;;;;5.75;5.00;;;;;6.12;70.12;98400.41;4898701;28;102075;-69
2023/03/20 03:28:10;;;;;;;;;11.00;8.00;;;;;6.11;70.29;98398.72;4902942;28;102078;-69
2023/03/20 03:30:38;;;;;;;;;4.00;3.25;;;;;6.09;70.32;98401.56;4899347;28;102364;-69
2023/03/20 03:33:37;;;;;;;;;7.25;6.00;;;;;6.06;70.25;98396.56;4894132;28;104132;-70
2023/03/20 03:36:13;;;;;;;;;4.50;3.75;;;;;6.09;70.13;98404.25;4886448;28;106274;-70
2023/03/20 03:38:50;;;;;;;;;3.50;3.50;;;;;6.10;69.76;98399.72;4899694;28;102004;-69
2023/03/20 03:41:23;;;;;;;;;3.25;3.25;;;;;6.10;69.41;98405.94;4895751;28;102381;-70
2023/03/20 03:44:13;;;;;;;;;6.75;4.50;;;;;6.10;69.42;98400.56;4890045;28;104002;-69
2023/03/20 03:46:50;;;;;;;;;6.75;6.00;;;;;6.09;69.30;98401.56;4889669;28;102182;-68
2023/03/20 03:49:29;;;;;;;;;4.00;3.75;;;;;6.11;69.51;98399.56;4894540;28;102500;-69
2023/03/20 03:52:05;;;;;;;;;4.00;4.00;;;;;6.10;69.24;98408.63;4895413;28;102248;-69
2023/03/20 03:54:47;;;;;;;;;2.50;2.25;;;;;6.08;69.03;98399.88;4893931;28;104000;-69
2023/03/20 03:57:21;;;;;;;;;4.00;3.25;;;;;6.10;69.16;98405.94;4896011;28;102394;-69
2023/03/20 03:59:51;;;;;;;;;1.75;1.00;;;;;6.11;69.23;98404.94;4899470;28;102379;-69
2023/03/20 04:02:21;;;;;;;;;3.00;2.00;;;;;6.09;69.52;98401.56;4899666;28;102261;-69
2023/03/20 04:04:51;;;;;;;;;6.75;5.75;;;;;6.01;69.29;98393.56;4904682;28;104187;-68
2023/03/20 04:07:20;;;;;;;;;3.50;3.50;;;;;6.11;69.22;98404.09;4923618;28;102179;-68
2023/03/20 04:09:47;;;;;;;;;3.00;2.00;;;;;6.09;70.27;98412.31;4894292;28;102393;-69
2023/03/20 04:12:35;;;;;;;;;6.00;5.50;;;;;6.07;70.18;98403.63;4899933;28;102439;-69
2023/03/20 04:15:03;;;;;;;;;7.25;6.00;;;;;6.06;69.68;98412.66;4891042;28;108660;-69
2023/03/20 04:17:30;;;;;;;;;6.75;6.50;;;;;6.04;69.04;98398.56;4896602;28;102175;-69
2023/03/20 04:19:57;;;;;;;;;14.25;11.75;;;;;6.04;69.97;98403.09;4894341;28;102127;-69
2023/03/20 04:22:24;;;;;;;;;17.75;14.00;;;;;6.01;69.26;98409.69;4890179;28;101901;-69
2023/03/20 04:24:51;;;;;;;;;17.50;15.00;;;;;6.03;68.75;98407.66;4889979;28;104128;-68
2023/03/20 04:27:19;;;;;;;;;17.25;13.25;;;;;6.06;68.78;98401.94;4890872;28;103436;-68
2023/03/20 04:29:46;;;;;;;;;11.50;9.75;;;;;6.07;68.37;98392.03;4895841;28;102236;-69
2023/03/20 04:32:13;;;;;;;;;12.50;8.75;;;;;6.08;68.25;98401.78;4888089;28;102362;-68
2023/03/20 04:34:41;;;;;;;;;7.00;6.50;;;;;6.08;68.92;98399.88;4886044;28;104021;-68
2023/03/20 04:37:08;;;;;;;;;7.00;6.50;;;;;6.08;69.21;98399.88;4899217;28;102698;-69
2023/03/20 04:39:36;;;;;;;;;5.50;5.50;;;;;6.07;69.73;98403.63;4902816;28;102022;-71
2023/03/20 04:42:04;;;;;;;;;11.25;7.00;;;;;6.05;70.57;98405.63;4899198;28;102253;-69
2023/03/20 04:44:31;;;;;;;;;7.50;6.75;;;;;6.03;70.36;98404.16;4903573;28;103764;-71
2023/03/20 04:46:59;;;;;;;;;6.75;4.00;;;;;5.97;71.32;98402.16;4905247;28;102373;-71
2023/03/20 04:49:27;;;;;;;;;12.00;11.50;;;;;5.80;71.31;98393.34;4867347;28;102235;-69
2023/03/20 04:51:55;;;;;;;;;14.25;10.75;;;;;5.90;70.92;98412.75;4871636;28;102450;-70
2023/03/20 04:54:22;;;;;;;;;14.75;13.00;;;;;5.91;70.08;98408.22;4895015;28;104000;-70
2023/03/20 04:56:49;;;;;;;;;8.25;6.25;;;;;5.90;69.78;98418.13;4899236;28;102106;-71
2023/03/20 04:59:16;;;;;;;;;9.00;8.00;;;;;5.91;69.26;98424.31;4896425;28;102210;-73
2023/03/20 05:01:43;;;;;;;;;7.00;6.00;;;;;5.88;69.99;98413.94;4896733;28;102360;-72
2023/03/20 05:04:10;;;;;;;;;8.00;8.00;;;;;5.83;71.44;98419.81;4892527;28;104199;-72
2023/03/20 05:06:38;;;;;;;;;5.00;4.00;;;;;5.81;70.74;98419.13;4886981;28;111411;-69
2023/03/20 05:09:07;;;;;;;;;17.75;14.25;;;;;5.75;71.16;98414.50;4817058;28;103046;-70
2023/03/20 05:11:35;;;;;;;;;15.50;12.50;;;;;5.77;70.67;98415.13;4882589;28;102098;-69
2023/03/20 05:14:03;;;;;;;;;8.00;7.75;;;;;5.80;70.34;98423.69;4887703;28;104021;-70
2023/03/20 05:16:30;;;;;;;;;6.00;5.00;;;;;5.80;72.26;98429.06;4892246;28;102633;-73
2023/03/20 05:18:57;;;;;;;;;8.75;7.00;;;;;5.81;70.63;98429.88;4900555;28;102334;-69
2023/03/20 05:21:24;;;;;;;;;9.75;8.00;;;;;5.87;70.17;98425.69;4901555;28;102356;-70
2023/03/20 05:23:51;;;;;;;;;8.75;8.75;;;;;5.89;69.76;98416.47;4899364;28;104455;-68
2023/03/20 05:26:18;;;;;;;;;8.25;7.25;;;;;5.89;69.88;98423.69;4899533;28;102270;-70
2023/03/20 05:28:45;;;;;;;;;9.25;7.25;;;;;5.84;70.92;98424.16;4903610;28;102389;-69
2023/03/20 05:31:12;;;;;;;;;9.75;8.25;;;;;5.91;70.70;98432.38;4895950;28;102737;-69
2023/03/20 05:33:39;;;;;;;;;9.50;8.50;;;;;5.93;69.63;98431.19;4895865;28;103842;-69
2023/03/20 05:36:07;;;;;;;;;8.75;7.75;;;;;5.99;69.67;98440.41;4894137;28;102367;-69
2023/03/20 05:38:34;;;;;;;;;8.25;6.25;;;;;6.00;69.28;98432.16;4902340;28;102528;-70
2023/03/20 05:41:01;;;;;;;;;12.00;9.00;;;;;6.02;69.04;98432.81;4895798;28;102399;-69
2023/03/20 05:43:28;;;;;;;;;8.00;7.75;;;;;6.08;69.05;98428.59;4898429;28;104028;-70
2023/03/20 05:45:55;;;;;;;;;9.50;9.00;;;;;6.11;68.96;98430.94;4899769;28;102009;-70
2023/03/20 05:48:23;;;;;;;;;9.25;9.00;;;;;6.20;69.20;98436.06;4892790;28;102508;-70
2023/03/20 05:50:50;;;;;;;;;8.00;7.00;;;;;6.28;69.18;98433.31;4899493;28;102369;-70
2023/03/20 05:53:17;;;;;;;;;5.00;5.00;;;;;6.36;69.03;98434.28;4897694;28;104227;-69
2023/03/20 05:55:45;;;;;;;;;7.75;7.75;;;;;6.48;68.16;98430.19;4894284;28;102356;-69
2023/03/20 05:58:12;;;;;;;;;6.00;6.00;;;;;6.57;68.39;98437.16;4896507;28;102444;-69
2023/03/20 06:00:39;;;;;;;;;12.00;12.00;;;;;6.69;67.82;98441.09;4904669;28;102455;-69
2023/03/20 06:03:06;;;;;;;;;17.25;16.00;;;;;6.82;68.02;98443.16;4904786;28;103986;-69
2023/03/20 06:05:34;;;;;;;;;14.75;11.25;;;;;6.94;68.53;98445.22;4903733;28;102436;-69
2023/03/20 06:08:02;;;;;;;;;18.50;16.00;;;;;7.08;68.55;98441.72;4901089;28;102308;-69
2023/03/20 06:10:30;;;;;;;;;14.00;13.50;;;;;7.22;68.18;98441.94;4906265;28;102370;-69
2023/03/20 06:12:59;;;;;;;;;12.75;10.00;;;;;7.35;68.66;98447.50;4897503;28;103754;-71
2023/03/20 06:15:27;;;;;;;;;15.75;11.50;;;;;7.48;67.51;98453.91;4898552;28;102286;-69
2023/03/20 06:17:55;;;;;;;;;16.00;15.00;;;;;7.58;67.12;98443.72;4897816;28;102950;-69
2023/03/20 06:20:23;;;;;;;;;8.50;8.50;;;;;7.69;66.24;98439.75;4893159;28;102489;-70
2023/03/20 06:22:50;;;;;;;;;8.00;7.00;;;;;7.90;65.85;98447.88;4901379;28;103736;-70
2023/03/20 06:25:18;;;;;;;;;9.50;7.00;;;;;8.08;64.63;98445.63;4900819;28;101894;-70
2023/03/20 06:27:47;;;;;;;;;9.50;8.00;;;;;8.32;64.13;98446.34;4896830;28;102214;-70
2023/03/20 06:30:15;;;;;;;;;8.50;7.75;;;;;8.50;63.37;98458.34;4902015;28;102297;-70
2023/03/20 06:32:43;;;;;;;;;7.50;6.50;;;;;8.65;62.38;98447.50;4881224;28;103730;-70
2023/03/20 06:35:11;;;;;;;;;8.75;8.00;;;;;8.72;62.78;98459.19;4902200;28;102254;-69
2023/03/20 06:37:38;;;;;;;;;8.50;7.00;;;;;8.74;61.46;98467.91;4885475;28;102478;-70
2023/03/20 06:40:06;;;;;;;;;13.00;9.25;;;;;8.62;61.45;98447.06;4904828;28;102302;-70
2023/03/20 06:42:33;;;;;;;;;9.75;9.00;;;;;8.73;62.12;98465.41;4901881;28;105550;-70
2023/03/20 06:45:00;;;;;;;;;10.75;8.50;;;;;8.71;63.17;98462.91;4904518;28;102521;-69
2023/03/20 06:47:27;;;;;;;;;11.25;8.75;;;;;8.67;62.36;98469.72;4893218;28;102420;-70
2023/03/20 06:49:54;;;;;;;;;12.75;10.75;;;;;8.70;62.86;98469.31;4903089;28;102021;-71
2023/03/20 06:52:22;;;;;;;;;15.00;13.50;;;;;8.74;63.32;98467.91;4900394;28;103979;-70
2023/03/20 06:54:49;;;;;;;;;11.00;10.50;;;;;8.77;62.74;98467.53;4900619;28;103279;-69
2023/03/20 06:57:17;;;;;;;;;13.50;9.00;;;;;8.80;63.27;98466.31;4890183;28;102214;-70
2023/03/20 06:59:44;;;;;;;;;7.00;6.00;;;;;8.81;63.28;98468.81;4901610;28;102702;-70
2023/03/20 07:02:11;;;;;;;;;9.00;8.50;;;;;8.82;62.58;98475.88;4899361;28;103989;-71
2023/03/20 07:04:39;;;;;;;;;12.50;10.50;;;;;8.83;62.63;98482.94;4896394;28;105167;-71
2023/03/20 07:07:06;;;;;;;;;11.00;10.00;;;;;8.83;62.59;98490.19;4897203;28;102951;-70
2023/03/20 07:09:33;;;;;;;;;9.50;8.25;;;;;8.86;62.86;98479.88;4894975;28;102035;-70
2023/03/20 07:12:01;;;;;;;;;13.25;11.00;;;;;8.87;62.95;98494.19;4892148;28;103482;-71
2023/03/20 07:14:28;;;;;;;;;15.00;13.25;;;;;8.89;61.60;98481.31;4890606;28;102220;-69
2023/03/20 07:16:55;;;;;;;;;16.00;13.25;;;;;8.98;61.61;98484.72;4890285;28;102480;-70
2023/03/20 07:19:23;;;;;;;;;16.50;11.75;;;;;9.11;62.22;98490.22;4892047;28;102693;-71
2023/03/20 07:21:56;;;;;;;;;11.75;11.25;;;;;9.23;61.39;98489.50;4906245;28;104381;-69
2023/03/20 07:24:23;;;;;;;;;11.00;8.75;;;;;9.36;61.86;98492.34;4900987;28;102407;-70
2023/03/20 07:26:50;;;;;;;;;11.00;10.25;;;;;9.50;60.80;98493.22;4896958;28;102138;-69
2023/03/20 07:29:18;;;;;;;;;9.25;7.50;;;;;9.70;61.31;98491.50;4904921;28;102138;-70
2023/03/20 07:31:45;;;;;;;;;11.00;10.00;;;;;9.89;61.05;98494.53;4901186;28;108633;-69
2023/03/20 07:34:12;;;;;;;;;10.00;9.00;;;;;10.07;60.44;98492.13;4898477;28;102036;-70
2023/03/20 07:36:40;;;;;;;;;9.75;9.75;;;;;10.19;60.70;98477.88;4902089;28;102256;-70
2023/03/20 07:39:09;;;;;;;;;7.00;5.00;;;;;10.28;60.02;98490.19;4900745;28;103012;-70
2023/03/20 07:41:37;;;;;;;;;7.50;5.50;;;;;10.40;60.58;98503.13;4900513;28;103183;-71
2023/03/20 07:44:06;;;;;;;;;15.25;13.75;;;;;10.37;60.25;98498.94;4891931;28;102163;-69
2023/03/20 07:46:33;;;;;;;;;13.00;12.00;;;;;10.40;59.92;98503.94;4894229;28;110161;-69
2023/03/20 07:49:01;;;;;;;;;18.25;16.50;;;;;10.34;61.55;98493.13;4899947;28;102401;-70
2023/03/20 07:51:27;;;;;;;;;15.75;14.75;;;;;10.38;62.21;98503.31;4895660;28;103997;-70
2023/03/20 07:53:54;;;;;;;;;21.25;18.50;;;;;10.39;63.14;98507.69;4890631;28;102353;-70
2023/03/20 07:56:22;;;;;;;;;41.00;34.50;;;;;10.31;64.47;98501.63;4895862;28;102166;-69
2023/03/20 07:58:49;;;;;;;;;21.00;13.50;;;;;10.55;65.37;98498.38;4894335;28;105394;-70
2023/03/20 08:01:16;;;;;;;;;40.25;37.50;;;;;10.40;69.18;98508.53;4905939;28;104212;-69
2023/03/20 08:03:43;;;;;;;;;52.00;41.25;;;;;10.31;71.12;98516.00;4904010;28;102357;-70
2023/03/20 08:06:10;;;;;;;;;60.50;44.50;;;;;9.94;72.63;98505.56;4907545;28;102194;-70
2023/03/20 08:08:37;;;;;;;;;56.25;42.75;;;;;9.94;72.62;98498.31;4890572;28;102285;-70
2023/03/20 08:11:04;;;;;;;;;52.50;38.75;;;;;9.94;73.44;98506.41;4900396;28;104395;-70
2023/03/20 08:13:31;;;;;;;;;56.00;42.75;;;;;9.76;74.07;98506.09;4898838;28;102716;-70
2023/03/20 08:15:58;;;;;;;;;53.75;42.50;;;;;9.73;74.23;98501.91;4896635;28;102649;-70
2023/03/20 08:18:26;;;;;;;;;55.25;42.00;;;;;9.80;74.54;98501.97;4899619;28;102212;-70
2023/03/20 08:20:53;;;;;;;;;31.50;30.50;;;;;9.94;74.40;98502.88;4892289;28;103985;-70
2023/03/20 08:23:20;;;;;;;;;54.00;44.50;;;;;9.65;74.20;98485.88;4892193;28;102066;-70
2023/03/20 08:25:48;;;;;;;;;48.75;40.00;;;;;9.66;75.03;98494.81;4893357;28;102462;-70
2023/03/20 08:28:16;;;;;;;;;49.25;40.25;;;;;9.78;75.01;98515.66;4896501;28;102076;-70
2023/03/20 08:30:43;;;;;;;;;57.25;42.75;;;;;9.66;75.19;98509.13;4894467;28;106969;-70
2023/03/20 08:33:12;;;;;;;;;45.75;38.25;;;;;9.77;75.39;98508.56;4901477;28;102768;-70
2023/03/20 08:35:39;;;;;;;;;36.25;34.00;;;;;9.86;76.84;98512.78;4897743;28;103091;-70
2023/03/20 08:38:06;;;;;;;;;37.75;32.50;;;;;9.94;77.21;98516.38;4890825;28;102296;-70
2023/03/20 08:40:33;;;;;;;;;55.00;45.75;;;;;9.63;79.97;98517.66;4897134;28;103763;-70
2023/03/20 08:43:00;;;;;;;;;42.50;37.25;;;;;9.81;79.65;98509.03;4906212;28;103474;-68
2023/03/20 08:45:27;;;;;;;;;40.25;35.00;;;;;10.07;78.60;98513.75;4902627;28;102564;-68
2023/03/20 08:47:54;;;;;;;;;35.25;30.00;;;;;10.27;77.28;98503.88;4902370;28;102751;-69
2023/03/20 08:50:21;;;;;;;;;39.75;35.00;;;;;10.31;77.01;98504.34;4899281;28;103818;-70
2023/03/20 08:52:48;;;;;;;;;26.50;23.50;;;;;10.68;75.65;98499.25;4903034;28;102088;-70
2023/03/20 08:55:16;;;;;;;;;26.25;22.75;;;;;10.94;74.51;98505.78;4895353;28;102447;-70
2023/03/20 08:57:43;;;;;;;;;16.25;13.75;;;;;11.27;73.79;98511.19;4901498;28;102311;-70
2023/03/20 09:00:13;;;;;;;;;35.75;33.75;;;;;11.20;74.48;98511.22;4898405;28;104083;-70
2023/03/20 09:02:42;;;;;;;;;33.50;29.25;;;;;11.26;74.20;98507.66;4897147;28;101997;-70
2023/03/20 09:05:10;;;;;;;;;44.25;36.00;;;;;11.16;74.80;98505.38;4900748;28;101945;-70
2023/03/20 09:07:37;;;;;;;;;23.25;21.25;;;;;11.55;73.56;98501.84;4900399;28;102549;-70
2023/03/20 09:10:04;;;;;;;;;43.50;34.00;;;;;11.35;74.38;98502.88;4899650;28;104008;-70
2023/03/20 09:12:32;;;;;;;;;32.75;27.50;;;;;11.52;73.15;98499.56;4894242;28;102538;-70
2023/03/20 09:15:00;;;;;;;;;52.50;40.25;;;;;11.06;75.26;98504.94;4901151;28;102358;-70
2023/03/20 09:17:27;;;;;;;;;43.25;37.25;;;;;11.22;75.04;98509.13;4894935;28;102567;-70
2023/03/20 09:19:54;;;;;;;;;51.00;40.25;;;;;11.21;75.62;98512.03;4895204;28;104150;-69
2023/03/20 09:22:21;;;;;;;;;37.25;33.75;;;;;11.48;74.22;98509.09;4903790;28;102124;-70
2023/03/20 09:24:48;;;;;;;;;27.25;22.25;;;;;11.73;73.67;98513.94;4904662;28;102217;-70
2023/03/20 09:27:15;;;;;;;;;31.75;21.00;;;;;11.93;73.05;98515.53;4903059;28;103019;-70
2023/03/20 09:29:43;;;;;;;;;28.00;22.75;;;;;11.97;73.27;98503.25;4907808;28;104020;-70
2023/03/20 09:32:12;;;;;;;;;42.75;35.75;;;;;11.66;74.66;98516.63;4906823;28;102315;-69
2023/03/20 09:34:39;;;;;;;;;32.75;31.00;;;;;11.99;74.03;98508.44;4926695;28;102689;-70
2023/03/20 09:37:06;;;;;;;;;34.00;30.75;;;;;12.19;72.16;98511.94;4899734;28;102245;-70
2023/03/20 09:39:34;;;;;;;;;28.50;25.00;;;;;12.37;73.24;98509.38;4900612;28;104000;-71
2023/03/20 09:42:47;;;;;;;;;22.25;20.75;;;;;12.56;72.28;98499.50;4898412;28;103495;-70
2023/03/20 09:45:42;;;;;;;;;20.50;18.25;;;;;12.85;71.32;98503.50;4892726;28;102280;-70
2023/03/20 09:48:40;;;;;;;;;14.00;13.00;;;;;13.13;71.21;98495.84;4901860;28;102593;-70
2023/03/20 09:51:28;;;;;;;;;15.75;14.00;;;;;13.23;70.33;98509.75;4898528;28;108728;-69
2023/03/20 09:54:13;;;;;;;;;61.25;46.75;;;;;12.32;73.00;98501.06;4893198;28;101990;-69
2023/03/20 09:56:40;;;;;;;;;47.75;40.00;;;;;11.94;75.36;98508.25;4895703;28;102840;-69
2023/03/20 09:59:11;;;;;;;;;48.50;40.50;;;;;11.76;75.11;98513.50;4899809;28;102014;-69
2023/03/20 10:01:47;;;;;;;;;33.50;27.50;;;;;12.30;74.18;98511.28;4896421;28;103663;-69
2023/03/20 10:04:15;;;;;;;;;49.00;36.25;;;;;12.07;74.99;98502.78;4908350;28;102553;-69
2023/03/20 10:06:42;;;;;;;;;49.25;40.25;;;;;12.12;74.52;98504.88;4895782;28;102982;-70
2023/03/20 10:09:25;;;;;;;;;40.00;32.75;;;;;12.27;74.24;98509.00;4905724;28;102136;-69
2023/03/20 10:12:50;;;;;;;;;49.25;39.25;;;;;12.08;74.43;98518.00;4901688;28;108696;-69
2023/03/20 10:15:45;;;;;;;;;47.25;37.50;;;;;12.11;75.09;98503.22;4868751;28;101974;-70
2023/03/20 10:18:32;;;;;;;;;46.50;38.75;;;;;12.23;75.18;98506.94;4902546;28;102030;-70
2023/03/20 10:21:06;;;;;;;;;46.25;37.25;;;;;12.33;74.02;98507.31;4900308;28;102517;-69
2023/03/20 10:23:46;;;;;;;;;43.00;36.25;;;;;12.25;74.54;98502.94;4893859;28;104293;-69
2023/03/20 10:26:18;;;;;;;;;38.75;34.25;;;;;12.24;74.83;98501.31;4890172;28;102048;-70
2023/03/20 10:28:49;;;;;;;;;34.75;28.50;;;;;12.38;75.25;98508.31;4900480;28;102345;-69
2023/03/20 10:31:54;;;;;;;;;33.50;30.00;;;;;12.26;75.75;98499.19;4900939;28;101988;-68
2023/03/20 10:34:40;;;;;;;;;56.25;42.00;;;;;11.82;77.58;98496.41;4894685;28;108776;-70
2023/03/20 10:37:21;;;;;;;;;42.00;34.50;;;;;11.97;77.95;98507.84;4898853;28;102143;-70
2023/03/20 10:40:26;;;;;;;;;31.25;27.25;;;;;11.99;77.02;98503.03;4894494;28;101955;-70
2023/03/20 10:42:57;;;;;;;;;54.25;40.50;;;;;11.90;77.55;98496.16;4877705;28;102336;-70
2023/03/20 10:45:43;;;;;;;;;38.50;32.25;;;;;12.14;77.41;98498.19;4898282;28;103978;-70
2023/03/20 10:48:36;;;;;;;;;34.00;28.50;;;;;12.31;76.84;98506.69;4895971;28;102665;-69
2023/03/20 10:51:13;;;;;;;;;36.75;33.25;;;;;12.19;77.23;98495.69;4894526;28;102231;-70
2023/03/20 10:53:47;;;;;;;;;46.00;37.00;;;;;11.83;78.64;98495.38;4903960;28;102256;-69
2023/03/20 10:56:31;;;;;;;;;50.50;40.25;;;;;11.54;79.28;98496.63;4903843;28;104023;-70
2023/03/20 10:59:05;;;;;;;;;31.50;28.25;;;;;11.82;78.96;98493.69;4898369;28;102349;-70
2023/03/20 11:01:32;;;;;;;;;45.50;35.00;;;;;11.81;80.03;98489.31;4883722;28;101911;-70
2023/03/20 11:04:01;;;;;;;;;32.75;29.75;;;;;12.01;79.12;98487.41;4890764;28;102127;-70
2023/03/20 11:06:42;;;;;;;;;28.75;23.50;;;;;12.23;78.31;98490.66;4896663;28;104107;-70
2023/03/20 11:09:18;;;;;;;;;44.00;38.00;;;;;11.93;78.46;98493.06;4899416;28;102111;-69
2023/03/20 11:11:47;;;;;;;;;39.50;35.00;;;;;11.82;79.30;98488.28;4894991;28;102313;-69
2023/03/20 11:14:21;;;;;;;;;33.50;28.00;;;;;12.30;77.85;98472.47;4897443;28;102365;-70
2023/03/20 11:16:51;;;;;;;;;38.00;30.50;;;;;12.66;76.74;98474.59;4889719;28;104101;-69
2023/03/20 11:19:20;;;;;;;;;33.25;28.00;;;;;12.78;76.53;98472.88;4889627;28;102107;-70
2023/03/20 11:21:57;;;;;;;;;33.25;30.25;;;;;12.95;75.09;98474.00;4900771;28;102337;-69
2023/03/20 11:24:45;;;;;;;;;38.50;31.75;;;;;12.81;74.39;98473.25;4901627;28;102461;-69
2023/03/20 11:27:16;;;;;;;;;41.50;36.00;;;;;12.63;75.26;98469.63;4899557;28;103804;-69
2023/03/20 11:29:48;;;;;;;;;45.25;35.50;;;;;12.42;75.85;98468.91;4907165;28;102320;-70
2023/03/20 11:32:29;;;;;;;;;39.50;32.50;;;;;12.89;74.98;98464.84;4903102;28;102790;-70
2023/03/20 11:35:29;;;;;;;;;44.00;36.00;;;;;12.72;75.12;98460.16;4904915;28;102415;-70
2023/03/20 11:38:19;;;;;;;;;30.00;26.50;;;;;13.01;74.04;98448.72;4895714;28;108858;-69
2023/03/20 11:40:48;;;;;;;;;26.50;25.75;;;;;13.31;73.13;98455.19;4886314;28;102195;-70
2023/03/20 11:43:21;;;;;;;;;22.50;19.50;;;;;13.73;70.71;98453.50;4898570;28;102365;-70
2023/03/20 11:45:58;;;;;;;;;29.75;26.50;;;;;13.66;70.44;98449.19;4898172;28;102444;-70
2023/03/20 11:48:37;;;;;;;;;25.00;23.25;;;;;13.66;69.89;98452.75;4894809;28;108175;-70